Alexander Springs, Pennsylvania
Current Conditions -  °F | °C
As of 12:35 AM on Saturday 01 Nov 2014 (Local Time) from KUNV Reporting Station
Overcast Overcast  
Wind Chill: 42°   Ceiling: 5500
Heat Index: 42°   Visibility: 10mi
Dew Point: 35°   Wind: 0mph
Humidity: 75%   Direction: NA
Pressure: 29.87"   Gusts: NA
Location:  40.5962°N, 77.7424°W
Report Text: KUNV 010435Z AUTO 00000KT 10SM OVC055 06/02 A2987 RMK AO2 T00560015
Loading
Personal Weather Stations






























Interactive Weather Map
Tropical Storm Tracking
New forecast layout! Learn more

10-Day Weather Forecast

Advertisements
Track Severe Weather on mobile